Flight Track Log - Related Links

Times and Time Zones

All times are in EDT time to prevent confusion due to time zone crossing. See the ASQ5685 flight status page for this flight to view local times or setup timezone preferences in your user account.

Time Position Orientation Groundspeed Altitude Reporting Facility
EDT Latitude Longitude Course Direction KTS MPH feet Rate Location/Type
Thu 09:38:43 AM 33.6333 -84.4000 72° East 160 184 2,000  Level Atlanta TRACON
Thu 09:39:43 AM 33.6333 -84.3333 90° East 240 276 3,000 2,000 Climbing Atlanta TRACON
Thu 09:40:43 AM 33.6333 -84.2500 90° East 260 299 6,000 2,550 Climbing Atlanta TRACON
Thu 09:41:00 AM 33.8702 -84.1504 54° Northeast  Level Estimated
Thu 09:41:43 AM 33.6333 -84.1500 90° East 284 327 8,100  Level Atlanta TRACON
Thu 09:42:00 AM 33.9479 -84.0575 48° Northeast  Level Estimated
Thu 09:42:43 AM 33.6628 -84.0661 67° East 309 356 10,400  Level Atlanta Center
Thu 09:43:00 AM 34.0255 -83.9645 53° Northeast  Level Estimated
Thu 09:43:43 AM 33.7128 -83.9964 49° Northeast 290 334 11,400  Level Atlanta Center
Thu 09:44:00 AM 34.0588 -83.8388 72° East  Level FlightAware Approximate
Thu 09:44:43 AM 33.7753 -83.9164 47° Northeast 313 360 12,600  Level Atlanta Center
Thu 09:45:43 AM 33.8400 -83.8336 47° Northeast 331 381 13,800 1,100 Climbing Atlanta Center
Thu 09:46:43 AM 33.9086 -83.7408 48° Northeast 348 400 14,800 1,000 Climbing Atlanta Center
Thu 09:47:43 AM 33.9731 -83.6456 51° Northeast 359 413 15,800 1,050 Climbing Atlanta Center
Thu 09:48:43 AM 34.0353 -83.5475 53° Northeast 367 422 16,900 1,050 Climbing Atlanta Center
Thu 09:49:43 AM 34.0975 -83.4492 53° Northeast 367 422 17,900 1,000 Climbing Atlanta Center
Thu 09:50:43 AM 34.1597 -83.3508 53° Northeast 367 422 18,900 1,000 Climbing Atlanta Center
Thu 09:51:43 AM 34.2278 -83.2397 53° Northeast 367 422 19,900 1,000 Climbing Atlanta Center
Thu 09:52:43 AM 34.2939 -83.1336 53° Northeast 367 422 20,900 933 Climbing Atlanta Center
Thu 09:54:00 AM 34.3765 -82.9961 54° Northeast  Level FlightAware Approximate
Thu 09:54:43 AM 34.4111 -82.9258 54° Northeast 370 426 22,700  Level Atlanta Center
Thu 09:55:43 AM 34.4811 -82.8267 49° Northeast 383 441 23,500 750 Climbing Atlanta Center
Thu 09:56:43 AM 34.5469 -82.7247 52° Northeast 388 447 24,200 700 Climbing Atlanta Center
Thu 09:57:43 AM 34.6167 -82.6203 51° Northeast 388 447 24,900 650 Climbing Atlanta Center
Thu 09:58:43 AM 34.6700 -82.5283 55° Northeast 388 447 25,500 600 Climbing Atlanta Center
Thu 09:59:43 AM 34.7353 -82.4236 53° Northeast 388 447 26,100 600 Climbing Atlanta Center
Thu 10:00:43 AM 34.8006 -82.3136 54° Northeast 388 447 26,700 600 Climbing Atlanta Center
Thu 10:01:43 AM 34.8658 -82.2086 53° Northeast 388 447 27,300 600 Climbing Atlanta Center
Thu 10:02:43 AM 34.9331 -82.0981 53° Northeast 388 447 27,900 600 Climbing Atlanta Center
Thu 10:03:43 AM 35.0061 -81.9822 52° Northeast 394 453 28,500 600 Climbing Atlanta Center
Thu 10:04:43 AM 35.0689 -81.8664 56° Northeast 394 453 29,100 550 Climbing Atlanta Center
Thu 10:05:43 AM 35.1294 -81.7531 57° Northeast 399 459 29,600 500 Climbing Atlanta Center
Thu 10:06:43 AM 35.1919 -81.6344 57° Northeast 399 459 30,100 500 Climbing Atlanta Center
Thu 10:07:43 AM 35.2500 -81.5183 58° Northeast 404 465 30,600 450 Climbing Atlanta Center
Thu 10:08:43 AM 35.3103 -81.4019 58° Northeast 404 465 31,000 200 Climbing Atlanta Center
Thu 10:09:43 AM 35.3722 -81.2828 57° Northeast 404 465 31,000  Level Atlanta Center
Thu 10:10:43 AM 35.4361 -81.1558 58° Northeast 420 483 31,000  Level Atlanta Center
Thu 10:11:43 AM 35.5019 -81.0311 57° Northeast 429 494 31,000  Level Atlanta Center
Thu 10:12:43 AM 35.5697 -80.9061 56° Northeast 435 501 31,000  Level Atlanta Center
Thu 10:13:43 AM 35.6372 -80.7756 58° Northeast 441 507 31,000  Level Atlanta Center
Thu 10:14:43 AM 35.7025 -80.6453 58° Northeast 441 507 31,000  Level Atlanta Center
Thu 10:15:43 AM 35.7719 -80.5169 56° Northeast 451 519 31,000  Level Atlanta Center
Thu 10:16:43 AM 35.8372 -80.3886 58° Northeast 451 519 31,000  Level Atlanta Center
Thu 10:19:03 AM 35.9922 -80.0872 57° Northeast 445 512 31,000  Level Washington Center
Thu 10:20:04 AM 36.0597 -79.9575 57° Northeast 440 506 31,000  Level Washington Center
Thu 10:21:05 AM 36.1289 -79.8328 56° Northeast 440 506 31,000  Level Washington Center
Thu 10:22:05 AM 36.2000 -79.7078 55° Northeast 449 517 31,000 -305 Level Washington Center
Thu 10:23:03 AM 36.2733 -79.5803 54° Northeast 449 517 30,400 -712 Descending Washington Center
Thu 10:24:03 AM 36.3422 -79.4497 57° Northeast 449 517 29,600 -843 Descending Washington Center
Thu 10:25:04 AM 36.4172 -79.3192 54° Northeast 449 517 28,700 -893 Descending Washington Center
Thu 10:26:04 AM 36.4814 -79.2008 56° Northeast 454 522 27,800 -843 Descending Washington Center
Thu 10:27:05 AM 36.5581 -79.0750 53° Northeast 454 522 27,000 -857 Descending Washington Center
Thu 10:28:03 AM 36.6286 -78.9461 56° Northeast 449 517 26,100 -1,017 Descending Washington Center
Thu 10:29:03 AM 36.7056 -78.7992 57° Northeast 454 522 25,000 -541 Descending Washington Center
Thu 10:30:05 AM 36.7778 -78.6700 55° Northeast 454 522 25,000 -98 Level Washington Center
Thu 10:31:05 AM 36.8458 -78.5456 56° Northeast 448 516 24,800 -356 Descending Washington Center
Thu 10:32:03 AM 36.9003 -78.4489 55° Northeast 406 467 24,300 -508 Descending Washington Center
Thu 10:33:03 AM 36.9547 -78.3494 56° Northeast 367 422 23,800 -496 Descending Washington Center
Thu 10:34:04 AM 37.0069 -78.2500 57° Northeast 350 403 23,300 -496 Descending Washington Center
Thu 10:35:04 AM 37.0775 -78.1742 41° Northeast 339 390 22,800 -496 Descending Washington Center
Thu 10:36:05 AM 37.1558 -78.1169 30° Northeast 334 384 22,300 -496 Descending Washington Center
Thu 10:37:05 AM 37.2344 -78.0569 31° Northeast 329 379 21,800 -508 Descending Washington Center
Thu 10:38:03 AM 37.3128 -77.9969 31° Northeast 329 379 21,300 -407 Descending Washington Center
Thu 10:39:03 AM 37.3933 -77.9342 32° Northeast 329 379 21,000 -150 Descending Washington Center
Thu 10:40:03 AM 37.4717 -77.8711 33° Northeast 329 379 21,000  Level Washington Center
Thu 10:41:04 AM 37.5542 -77.8133 29° Northeast 329 379 21,000  Level Washington Center
Thu 10:42:04 AM 37.6383 -77.7633 25° Northeast 329 379 21,000 -298 Level Washington Center
Thu 10:43:05 AM 37.7269 -77.7133 24° Northeast 329 379 20,400 -1,361 Descending Washington Center
Thu 10:44:03 AM 37.8114 -77.6631 25° Northeast 329 379 18,300 -2,085 Descending Washington Center
Thu 10:45:03 AM 37.8933 -77.6153 25° Northeast 329 379 16,300 -1,934 Descending Washington Center
Thu 10:46:04 AM 37.9714 -77.5672 26° Northeast 318 366 14,400 -1,770 Descending Washington Center
Thu 10:47:05 AM 38.0450 -77.5269 23° Northeast 308 354 12,700 -1,587 Descending Washington Center
Thu 10:48:05 AM 38.1208 -77.4817 25° Northeast 297 342 11,200 -1,373 Descending Washington Center
Thu 10:49:03 AM 38.1944 -77.4386 25° Northeast 297 342 10,000 -661 Descending Washington Center
Thu 10:50:03 AM 38.2678 -77.4244 North 285 328 9,900 -347 Descending Washington Center
Thu 10:51:04 AM 38.3378 -77.4686 334° Northwest 257 296 9,300 -590 Descending Washington Center
Thu 10:52:05 AM 38.4128 -77.4731 357° North 257 296 8,700 -706 Descending Washington Center
Thu 10:53:03 AM 38.4881 -77.4697 North 257 296 7,900 -814 Descending Washington Center
Thu 10:54:03 AM 38.5653 -77.4689 360° North 257 296 7,100 -1,024 Descending Washington Center
Thu 10:55:06 AM 38.6500 -77.4667 North 262 302 5,800 -1,171 Descending Potomac TRACON
Thu 10:56:06 AM 38.7167 -77.4667 360° North 248 285 4,700 -1,252 Descending Potomac TRACON
Thu 10:57:01 AM 38.7833 -77.4667 360° North 252 290 3,400 -1,043 Descending Potomac TRACON
Thu 10:58:01 AM 38.8500 -77.4667 360° North 212 244 2,700 -950 Descending Potomac TRACON
Thu 10:59:01 AM 38.9000 -77.4667 360° North 150 173 1,500 -1,105 Descending Potomac TRACON
Thu 10:59:55 AM 38.9333 -77.4667 360° North 136 157 600 -1,000 Descending Potomac TRACON

Login

Don't have an account? Register now (free) for customized features, flight alerts, and more!